createdAt,value
2023-04-15T00:02:15.650Z,9.40
2023-04-15T00:04:46.263Z,9.40
2023-04-15T00:07:14.945Z,9.40
2023-04-15T00:09:44.882Z,9.30
2023-04-15T00:12:12.854Z,9.30
2023-04-15T00:14:39.667Z,9.30
2023-04-15T00:17:06.523Z,9.30
2023-04-15T00:19:34.681Z,9.30
2023-04-15T00:22:01.526Z,9.30
2023-04-15T00:24:28.280Z,9.30
2023-04-15T00:26:55.086Z,9.20
2023-04-15T00:29:21.911Z,9.20
2023-04-15T00:31:48.624Z,9.20
2023-04-15T00:34:15.385Z,9.20
2023-04-15T00:36:42.280Z,9.10
2023-04-15T00:39:09.217Z,9.10
2023-04-15T00:41:39.264Z,9.00
2023-04-15T00:44:09.441Z,9.00
2023-04-15T00:46:40.327Z,9.00
2023-04-15T00:49:11.201Z,8.90
2023-04-15T00:51:38.003Z,8.90
2023-04-15T00:54:05.991Z,8.80
2023-04-15T00:56:36.965Z,8.80
2023-04-15T00:59:04.513Z,8.70
2023-04-15T01:01:31.700Z,8.70
2023-04-15T01:03:58.880Z,8.60
2023-04-15T01:06:27.415Z,8.60
2023-04-15T01:08:56.096Z,8.50
2023-04-15T01:11:24.181Z,8.50
2023-04-15T01:13:52.330Z,8.40
2023-04-15T01:16:19.997Z,8.30
2023-04-15T01:18:47.015Z,8.30
2023-04-15T01:21:13.817Z,8.30
2023-04-15T01:23:40.752Z,8.20
2023-04-15T01:26:09.269Z,8.20
2023-04-15T01:28:37.559Z,8.10
2023-04-15T01:31:12.850Z,8.10
2023-04-15T01:33:41.178Z,8.10
2023-04-15T01:36:09.752Z,8.00
2023-04-15T01:38:39.547Z,8.10
2023-04-15T01:41:08.196Z,8.00
2023-04-15T01:43:37.165Z,8.00
2023-04-15T01:46:03.997Z,7.90
2023-04-15T01:48:31.266Z,7.80
2023-04-15T01:50:58.607Z,7.70
2023-04-15T01:53:26.005Z,7.70
2023-04-15T01:55:52.856Z,7.60
2023-04-15T01:58:20.050Z,7.60
2023-04-15T02:00:47.285Z,7.50
2023-04-15T02:03:14.209Z,7.50
2023-04-15T02:05:41.078Z,7.40
2023-04-15T02:08:07.867Z,7.40
2023-04-15T02:10:35.519Z,7.30
2023-04-15T02:13:02.624Z,7.30
2023-04-15T02:15:29.601Z,7.20
2023-04-15T02:17:57.024Z,7.20
2023-04-15T02:20:23.980Z,7.10
2023-04-15T02:22:50.852Z,7.10
2023-04-15T02:25:17.811Z,7.00
2023-04-15T02:27:44.616Z,7.00
2023-04-15T02:30:11.636Z,6.90
2023-04-15T02:32:38.530Z,6.90
2023-04-15T02:35:06.789Z,6.80
2023-04-15T02:37:40.490Z,6.80
2023-04-15T02:40:10.226Z,6.80
2023-04-15T02:42:36.978Z,6.70
2023-04-15T02:45:04.040Z,6.60
2023-04-15T02:47:30.871Z,6.60
2023-04-15T02:49:58.716Z,6.60
2023-04-15T02:52:25.684Z,6.50
2023-04-15T02:54:53.920Z,6.50
2023-04-15T02:57:22.361Z,6.40
2023-04-15T02:59:49.119Z,6.40
2023-04-15T03:02:16.188Z,6.30
2023-04-15T03:04:46.149Z,6.30
2023-04-15T03:07:12.972Z,6.30
2023-04-15T03:09:43.460Z,6.20
2023-04-15T03:12:10.214Z,6.20
2023-04-15T03:14:37.032Z,6.20
2023-04-15T03:17:04.915Z,6.10
2023-04-15T03:19:32.077Z,6.10
2023-04-15T03:21:58.879Z,6.10
2023-04-15T03:24:26.312Z,6.00
2023-04-15T03:26:53.069Z,6.00
2023-04-15T03:29:19.864Z,6.00
2023-04-15T03:31:46.965Z,6.00
2023-04-15T03:34:13.691Z,6.00
2023-04-15T03:36:40.694Z,5.90
2023-04-15T03:39:07.475Z,5.90
2023-04-15T03:41:34.286Z,5.90
2023-04-15T03:44:01.177Z,5.90
2023-04-15T03:46:28.129Z,5.80
2023-04-15T03:48:54.978Z,5.80
2023-04-15T03:51:22.256Z,5.80
2023-04-15T03:53:49.331Z,5.70
2023-04-15T03:56:16.070Z,5.70
2023-04-15T03:58:42.878Z,5.70
2023-04-15T04:01:09.869Z,5.70
2023-04-15T04:03:37.336Z,5.60
2023-04-15T04:06:04.693Z,5.60
2023-04-15T04:08:31.438Z,5.60
2023-04-15T04:10:58.227Z,5.60
2023-04-15T04:13:24.990Z,5.60
2023-04-15T04:15:51.810Z,5.60
2023-04-15T04:18:18.687Z,5.50
2023-04-15T04:20:45.746Z,5.50
2023-04-15T04:23:12.618Z,5.50
2023-04-15T04:25:39.411Z,5.40
2023-04-15T04:28:06.171Z,5.40
2023-04-15T04:30:33.113Z,5.40
2023-04-15T04:33:00.047Z,5.40
2023-04-15T04:35:27.412Z,5.30
2023-04-15T04:37:54.185Z,5.40
2023-04-15T04:40:21.216Z,5.40
2023-04-15T04:42:48.154Z,5.30
2023-04-15T04:45:15.173Z,5.30
2023-04-15T04:47:41.990Z,5.30
2023-04-15T04:50:09.213Z,5.30
2023-04-15T04:52:36.083Z,5.30
2023-04-15T04:55:02.975Z,5.30
2023-04-15T04:57:29.772Z,5.30
2023-04-15T04:59:56.682Z,5.30
2023-04-15T05:02:23.779Z,5.30
2023-04-15T05:04:54.404Z,5.30
2023-04-15T05:07:21.381Z,5.30
2023-04-15T05:09:48.284Z,5.30
2023-04-15T05:12:16.225Z,5.40
2023-04-15T05:14:43.042Z,5.40
2023-04-15T05:17:09.828Z,5.50
2023-04-15T05:19:39.059Z,5.50
2023-04-15T05:22:06.299Z,5.60
2023-04-15T05:24:33.065Z,5.60
2023-04-15T05:27:01.294Z,5.60
2023-04-15T05:29:28.020Z,5.70
2023-04-15T05:31:54.920Z,5.80
2023-04-15T05:34:21.688Z,5.90
2023-04-15T05:36:48.834Z,5.80
2023-04-15T05:39:17.605Z,5.80
2023-04-15T05:41:44.831Z,5.80
2023-04-15T05:44:12.012Z,5.70
2023-04-15T05:46:39.347Z,5.70
2023-04-15T05:49:06.264Z,5.70
2023-04-15T05:51:33.049Z,5.60
2023-04-15T05:53:59.831Z,5.70
2023-04-15T05:56:27.136Z,5.70
2023-04-15T05:58:54.010Z,5.70
2023-04-15T06:01:20.906Z,5.70
2023-04-15T06:03:48.797Z,5.70
2023-04-15T06:06:16.035Z,5.80
2023-04-15T06:08:42.808Z,5.80
2023-04-15T06:11:09.607Z,5.90
2023-04-15T06:13:36.361Z,6.00
2023-04-15T06:16:04.155Z,6.10
2023-04-15T06:18:30.930Z,6.20
2023-04-15T06:20:57.778Z,6.40
2023-04-15T06:23:26.327Z,6.60
2023-04-15T06:25:53.799Z,6.90
2023-04-15T06:28:20.521Z,7.30
2023-04-15T06:30:47.469Z,7.90
2023-04-15T06:33:14.227Z,8.40
2023-04-15T06:35:41.097Z,8.70
2023-04-15T06:38:07.899Z,8.90
2023-04-15T06:40:35.567Z,9.20
2023-04-15T06:43:02.359Z,9.50
2023-04-15T06:45:29.130Z,9.90
2023-04-15T06:47:56.015Z,10.50
2023-04-15T06:50:22.877Z,11.00
2023-04-15T06:52:49.940Z,11.60
2023-04-15T06:55:16.757Z,12.10
2023-04-15T06:57:43.544Z,12.60
2023-04-15T07:00:12.064Z,13.20
2023-04-15T07:02:39.208Z,13.70
2023-04-15T07:05:07.127Z,14.00
2023-04-15T07:07:33.904Z,14.10
2023-04-15T07:10:02.103Z,14.20
2023-04-15T07:12:29.010Z,14.20
2023-04-15T07:14:55.936Z,14.50
2023-04-15T07:17:22.832Z,15.00
2023-04-15T07:19:49.672Z,15.60
2023-04-15T07:22:16.549Z,16.30
2023-04-15T07:24:43.326Z,16.50
2023-04-15T07:27:10.154Z,17.00
2023-04-15T07:29:36.969Z,17.60
2023-04-15T07:32:03.927Z,18.10
2023-04-15T07:34:31.521Z,18.50
2023-04-15T07:36:59.389Z,19.00
2023-04-15T07:39:26.436Z,19.30
2023-04-15T07:41:53.269Z,19.50
2023-04-15T07:44:20.058Z,19.70
2023-04-15T07:46:46.921Z,19.80
2023-04-15T07:49:14.456Z,20.00
2023-04-15T07:51:41.227Z,20.20
2023-04-15T07:59:31.221Z,21.30
2023-04-15T08:01:58.457Z,21.70
2023-04-15T08:04:25.790Z,22.10
2023-04-15T08:06:52.796Z,22.40
2023-04-15T08:09:20.029Z,23.00
2023-04-15T08:11:49.356Z,23.30
2023-04-15T08:14:16.750Z,23.50
2023-04-15T08:16:43.550Z,23.80
2023-04-15T08:19:10.525Z,24.20
2023-04-15T08:21:37.347Z,24.30
2023-04-15T08:24:04.279Z,24.60
2023-04-15T08:26:31.211Z,24.80
2023-04-15T08:28:58.105Z,25.00
2023-04-15T08:31:27.909Z,25.40
2023-04-15T08:33:56.863Z,25.80
2023-04-15T08:36:23.621Z,26.00
2023-04-15T08:38:50.581Z,26.40
2023-04-15T08:41:25.805Z,26.70
2023-04-15T08:44:13.569Z,27.00
2023-04-15T08:46:42.814Z,27.30
2023-04-15T08:49:14.830Z,27.60
2023-04-15T08:51:42.036Z,27.80
2023-04-15T08:54:09.759Z,27.90
2023-04-15T08:56:39.043Z,28.00
2023-04-15T08:59:07.170Z,27.70
2023-04-15T09:01:34.383Z,27.40
2023-04-15T09:04:03.400Z,27.00
2023-04-15T09:06:30.224Z,26.50
2023-04-15T09:08:58.085Z,25.50
2023-04-15T09:11:24.937Z,24.70
2023-04-15T09:13:52.356Z,24.50
2023-04-15T09:16:19.608Z,24.60
2023-04-15T09:18:46.632Z,24.90
2023-04-15T09:21:17.908Z,25.10
2023-04-15T09:24:01.647Z,25.40
2023-04-15T09:26:37.660Z,25.90
2023-04-15T09:29:09.888Z,26.30
2023-04-15T09:31:37.859Z,26.40
2023-04-15T09:34:04.966Z,26.80
2023-04-15T09:36:50.849Z,27.40
2023-04-15T09:39:18.066Z,27.60
2023-04-15T09:41:45.291Z,27.70
2023-04-15T09:44:25.733Z,28.00
2023-04-15T09:46:52.599Z,28.10
2023-04-15T09:49:20.961Z,27.90
2023-04-15T09:52:03.955Z,27.70
2023-04-15T09:54:38.955Z,27.60
2023-04-15T09:57:10.341Z,27.50
2023-04-15T09:59:44.706Z,27.20
2023-04-15T10:02:13.778Z,27.20
2023-04-15T10:04:41.646Z,27.40
2023-04-15T10:07:10.014Z,27.60
2023-04-15T10:09:38.335Z,27.80
2023-04-15T10:12:05.768Z,28.10
2023-04-15T10:14:35.755Z,28.20
2023-04-15T10:17:04.869Z,28.20
2023-04-15T10:19:37.417Z,28.40
2023-04-15T10:22:07.821Z,28.50
2023-04-15T10:24:35.418Z,28.80
2023-04-15T10:27:06.003Z,29.20
2023-04-15T10:29:37.747Z,29.40
2023-04-15T10:32:08.296Z,30.00
2023-04-15T10:34:35.791Z,30.20
2023-04-15T10:37:06.525Z,29.10
2023-04-15T10:39:34.191Z,27.70
2023-04-15T10:42:15.514Z,27.20
2023-04-15T10:44:50.869Z,26.90
2023-04-15T10:47:19.861Z,27.10
2023-04-15T10:49:59.230Z,27.60
2023-04-15T10:52:31.008Z,28.20
2023-04-15T10:55:12.820Z,28.40
2023-04-15T10:57:41.124Z,28.60
2023-04-15T11:00:19.315Z,29.60
2023-04-15T11:02:47.770Z,29.20
2023-04-15T11:05:19.128Z,29.00
2023-04-15T11:07:56.876Z,29.70
2023-04-15T11:10:32.665Z,30.60
2023-04-15T11:13:02.401Z,29.80
2023-04-15T11:15:42.532Z,28.80
2023-04-15T11:18:19.347Z,27.40
2023-04-15T11:20:59.350Z,26.60
2023-04-15T11:23:41.355Z,26.20
2023-04-15T11:26:10.248Z,26.90
2023-04-15T11:28:41.475Z,27.70
2023-04-15T11:31:13.985Z,28.20
2023-04-15T11:34:02.011Z,28.50
2023-04-15T11:36:32.211Z,27.90
2023-04-15T11:39:00.233Z,28.00
2023-04-15T11:41:27.141Z,28.60
2023-04-15T11:43:54.037Z,29.00
2023-04-15T11:46:22.728Z,29.20
2023-04-15T11:48:51.953Z,29.50
2023-04-15T11:51:21.009Z,29.90
2023-04-15T11:53:50.606Z,30.20
2023-04-15T11:56:23.342Z,30.40
2023-04-15T11:59:00.190Z,30.80
2023-04-15T12:01:39.525Z,31.20
2023-04-15T12:04:20.876Z,30.30
2023-04-15T12:06:50.141Z,29.10
2023-04-15T12:09:17.485Z,29.50
2023-04-15T12:11:47.562Z,30.00
2023-04-15T12:14:26.718Z,30.30
2023-04-15T12:16:58.622Z,30.90
2023-04-15T12:19:38.297Z,30.10
2023-04-15T12:22:16.470Z,29.20
2023-04-15T12:24:47.129Z,29.30
2023-04-15T12:27:21.514Z,29.60
2023-04-15T12:29:48.361Z,28.30
2023-04-15T12:32:17.498Z,26.90
2023-04-15T12:34:52.063Z,25.90
2023-04-15T12:37:19.001Z,25.20
2023-04-15T12:39:49.490Z,26.10
2023-04-15T12:42:17.870Z,27.00
2023-04-15T12:47:30.280Z,26.80
2023-04-15T12:50:05.762Z,27.10
2023-04-15T12:55:08.509Z,27.90
2023-04-15T12:57:35.389Z,28.40
2023-04-15T13:00:02.562Z,28.50
2023-04-15T13:02:29.594Z,28.90
2023-04-15T13:04:56.648Z,29.00
2023-04-15T13:07:23.962Z,29.20
2023-04-15T13:09:50.878Z,27.90
2023-04-15T13:12:17.676Z,26.70
2023-04-15T13:14:44.588Z,25.70
2023-04-15T13:17:11.606Z,24.90
2023-04-15T13:19:39.220Z,24.20
2023-04-15T13:22:07.252Z,23.60
2023-04-15T13:24:34.100Z,23.50
2023-04-15T13:27:01.016Z,23.90
2023-04-15T13:29:27.973Z,23.60
2023-04-15T13:31:54.891Z,23.10
2023-04-15T13:34:21.769Z,22.90
2023-04-15T13:36:48.909Z,22.70
2023-04-15T13:39:17.165Z,22.00
2023-04-15T13:41:44.007Z,21.50
2023-04-15T13:44:12.328Z,21.00
2023-04-15T13:49:24.553Z,20.50
2023-04-15T13:51:51.731Z,20.30
2023-04-15T13:54:18.544Z,20.30
2023-04-15T13:56:45.455Z,20.10
2023-04-15T14:07:30.892Z,19.00
2023-04-15T14:12:39.402Z,18.40
2023-04-15T14:15:06.841Z,18.20
2023-04-15T14:20:19.790Z,17.70
2023-04-15T14:22:46.713Z,17.40
2023-04-15T14:25:23.065Z,17.10
2023-04-15T14:27:57.532Z,16.80
2023-04-15T14:35:45.148Z,16.50
2023-04-15T14:38:11.987Z,16.50
2023-04-15T14:40:39.206Z,16.60
2023-04-15T14:43:08.566Z,16.60
2023-04-15T14:45:36.388Z,16.70
2023-04-15T14:48:03.571Z,16.70
2023-04-15T14:50:30.610Z,16.40
2023-04-15T14:52:57.507Z,16.30
2023-04-15T14:55:24.554Z,16.20
2023-04-15T14:57:51.574Z,16.00
2023-04-15T15:00:18.707Z,15.90
2023-04-15T15:02:47.579Z,15.80
2023-04-15T15:05:15.210Z,15.80
2023-04-15T15:07:42.285Z,15.90
2023-04-15T15:10:09.268Z,15.90
2023-04-15T15:12:36.408Z,15.80
2023-04-15T15:15:12.393Z,15.80
2023-04-15T15:17:43.020Z,15.60
2023-04-15T15:20:10.584Z,15.40
2023-04-15T15:22:37.355Z,15.30
2023-04-15T15:25:04.799Z,15.20
2023-04-15T15:27:32.057Z,15.10
2023-04-15T15:29:59.320Z,15.00
2023-04-15T15:32:26.268Z,15.00
2023-04-15T15:34:53.375Z,14.90
2023-04-15T15:37:20.305Z,14.90
2023-04-15T15:39:47.123Z,14.80
2023-04-15T15:42:14.116Z,14.70
2023-04-15T15:44:40.999Z,14.60
2023-04-15T15:47:08.034Z,14.50
2023-04-15T15:49:34.951Z,14.20
2023-04-15T15:52:01.796Z,14.10
2023-04-15T15:54:29.266Z,14.00
2023-04-15T15:56:57.686Z,14.00
2023-04-15T15:59:27.580Z,14.00
2023-04-15T16:01:54.387Z,14.00
2023-04-15T16:04:21.751Z,13.90
2023-04-15T16:06:49.595Z,13.80
2023-04-15T16:09:17.888Z,13.60
2023-04-15T16:11:45.817Z,13.60
2023-04-15T16:14:14.040Z,13.50
2023-04-15T16:16:41.133Z,13.50
2023-04-15T16:19:07.940Z,13.40
2023-04-15T16:21:35.625Z,13.30
2023-04-15T16:24:03.058Z,13.30
2023-04-15T16:26:30.356Z,13.20
2023-04-15T16:28:57.283Z,13.30
2023-04-15T16:31:24.337Z,13.20
2023-04-15T16:33:51.337Z,13.20
2023-04-15T16:36:18.138Z,13.20
2023-04-15T16:38:48.472Z,13.20
2023-04-15T16:41:15.923Z,13.20
2023-04-15T16:43:42.749Z,13.10
2023-04-15T16:46:09.579Z,13.10
2023-04-15T16:48:36.404Z,12.90
2023-04-15T16:51:03.266Z,12.80
2023-04-15T16:53:30.047Z,12.80
2023-04-15T16:55:57.048Z,12.70
2023-04-15T16:58:31.843Z,12.60
2023-04-15T17:00:59.319Z,12.50
2023-04-15T17:03:27.499Z,12.50
2023-04-15T17:05:54.381Z,12.50
2023-04-15T17:08:21.165Z,12.40
2023-04-15T17:10:48.008Z,12.40
2023-04-15T17:13:14.899Z,12.40
2023-04-15T17:15:41.777Z,12.40
2023-04-15T17:18:09.445Z,12.30
2023-04-15T17:20:36.302Z,12.30
2023-04-15T17:23:04.052Z,12.30
2023-04-15T17:25:31.056Z,12.20
2023-04-15T17:27:58.050Z,12.20
2023-04-15T17:30:27.871Z,12.10
2023-04-15T17:32:55.105Z,12.10
2023-04-15T17:35:23.827Z,12.00
2023-04-15T17:37:51.230Z,11.90
2023-04-15T17:40:19.277Z,11.90
2023-04-15T17:42:46.318Z,11.80
2023-04-15T17:45:15.173Z,11.80
2023-04-15T17:47:43.057Z,11.70
2023-04-15T17:50:10.320Z,11.70
2023-04-15T17:52:37.100Z,11.60
2023-04-15T17:55:12.167Z,11.60
2023-04-15T17:57:42.311Z,11.60
2023-04-15T18:00:10.730Z,11.50
2023-04-15T18:02:38.249Z,11.50
2023-04-15T18:05:07.375Z,11.50
2023-04-15T18:07:38.171Z,11.50
2023-04-15T18:10:05.715Z,11.50
2023-04-15T18:12:33.819Z,11.40
2023-04-15T18:15:00.828Z,11.40
2023-04-15T18:17:28.490Z,11.30
2023-04-15T18:19:56.052Z,11.30
2023-04-15T18:22:22.863Z,11.30
2023-04-15T18:24:50.989Z,11.20
2023-04-15T18:27:18.332Z,11.20
2023-04-15T18:29:49.506Z,11.20
2023-04-15T18:32:16.754Z,11.20
2023-04-15T18:34:43.506Z,11.10
2023-04-15T18:37:10.457Z,11.00
2023-04-15T18:39:37.244Z,11.00
2023-04-15T18:42:06.526Z,11.00
2023-04-15T18:44:36.107Z,11.00
2023-04-15T18:47:05.839Z,11.00
2023-04-15T18:49:33.324Z,10.90
2023-04-15T18:52:02.959Z,10.90
2023-04-15T18:54:31.518Z,10.80
2023-04-15T18:56:58.650Z,10.80
2023-04-15T18:59:29.702Z,10.80
2023-04-15T19:01:58.158Z,10.70
2023-04-15T19:04:25.750Z,10.70
2023-04-15T19:06:52.704Z,10.70
2023-04-15T19:09:23.956Z,10.70
2023-04-15T19:11:50.885Z,10.70
2023-04-15T19:14:19.655Z,10.70
2023-04-15T19:16:47.961Z,10.60
2023-04-15T19:19:15.154Z,10.60
2023-04-15T19:21:42.073Z,10.60
2023-04-15T19:24:10.194Z,10.50
2023-04-15T19:26:37.233Z,10.40
2023-04-15T19:29:04.240Z,10.40
2023-04-15T19:31:31.694Z,10.40
2023-04-15T19:33:58.479Z,10.40
2023-04-15T19:36:25.429Z,10.40
2023-04-15T19:38:54.398Z,10.40
2023-04-15T19:41:26.582Z,10.30
2023-04-15T19:43:53.441Z,10.30
2023-04-15T19:46:20.519Z,10.30
2023-04-15T19:48:47.521Z,10.30
2023-04-15T19:51:16.349Z,10.30
2023-04-15T19:53:43.165Z,10.30
2023-04-15T19:56:10.066Z,10.20
2023-04-15T19:58:37.426Z,10.20
2023-04-15T20:01:04.284Z,10.20
2023-04-15T20:03:31.382Z,10.20
2023-04-15T20:05:58.369Z,10.20
2023-04-15T20:08:25.195Z,10.30
2023-04-15T20:10:51.963Z,10.30
2023-04-15T20:13:18.868Z,10.20
2023-04-15T20:15:45.905Z,10.20
2023-04-15T20:18:12.711Z,10.20
2023-04-15T20:20:40.358Z,10.20
2023-04-15T20:23:07.174Z,10.20
2023-04-15T20:25:33.983Z,10.20
2023-04-15T20:28:01.194Z,10.30
2023-04-15T20:30:29.710Z,10.20
2023-04-15T20:32:56.851Z,10.20
2023-04-15T20:35:25.146Z,10.20
2023-04-15T20:37:52.131Z,10.20
2023-04-15T20:40:19.083Z,10.20
2023-04-15T20:42:48.551Z,10.20
2023-04-15T20:45:15.493Z,10.20
2023-04-15T20:47:42.557Z,10.20
2023-04-15T20:50:10.235Z,10.20
2023-04-15T20:52:37.014Z,10.10
2023-04-15T20:55:04.054Z,10.10
2023-04-15T20:57:30.851Z,10.10
2023-04-15T20:59:57.762Z,10.10
2023-04-15T21:02:25.193Z,10.10
2023-04-15T21:04:52.162Z,10.10
2023-04-15T21:07:18.976Z,10.10
2023-04-15T21:09:46.934Z,10.00
2023-04-15T21:12:13.832Z,10.00
2023-04-15T21:14:40.713Z,10.00
2023-04-15T21:17:10.891Z,9.90
2023-04-15T21:19:38.759Z,10.00
2023-04-15T21:22:05.732Z,10.00
2023-04-15T21:24:32.675Z,9.90
2023-04-15T21:26:59.637Z,9.90
2023-04-15T21:29:26.424Z,9.90
2023-04-15T21:31:53.765Z,9.90
2023-04-15T21:34:20.619Z,9.90
2023-04-15T21:36:47.498Z,9.90
2023-04-15T21:39:14.347Z,9.90
2023-04-15T21:41:41.240Z,9.90
2023-04-15T21:44:08.173Z,9.80
2023-04-15T21:46:36.105Z,9.80
2023-04-15T21:49:03.562Z,9.80
2023-04-15T21:51:31.434Z,9.80
2023-04-15T21:53:58.761Z,9.80
2023-04-15T21:56:26.064Z,9.80
2023-04-15T21:58:59.398Z,9.80
2023-04-15T22:01:26.958Z,9.80
2023-04-15T22:03:55.293Z,9.80
2023-04-15T22:06:22.374Z,9.80
2023-04-15T22:09:11.409Z,9.80
2023-04-15T22:11:37.006Z,9.80
2023-04-15T22:14:03.919Z,9.80
2023-04-15T22:16:30.733Z,9.70
2023-04-15T22:18:57.600Z,9.70
2023-04-15T22:21:24.471Z,9.70
2023-04-15T22:23:51.966Z,9.80
2023-04-15T22:26:18.938Z,9.80
2023-04-15T22:28:45.770Z,9.80
2023-04-15T22:31:13.735Z,9.80
2023-04-15T22:33:40.653Z,9.80
2023-04-15T22:36:07.733Z,9.80
2023-04-15T22:38:34.476Z,9.80
2023-04-15T22:41:01.296Z,9.80
2023-04-15T22:43:28.274Z,9.80
2023-04-15T22:45:55.507Z,9.70
2023-04-15T22:48:23.068Z,9.70
2023-04-15T22:50:50.127Z,9.70
2023-04-15T22:53:17.963Z,9.70
2023-04-15T22:55:47.079Z,9.70
2023-04-15T22:58:15.051Z,9.70
2023-04-15T23:00:42.245Z,9.60
2023-04-15T23:03:09.414Z,9.60
2023-04-15T23:05:36.713Z,9.70
2023-04-15T23:08:03.766Z,9.70
2023-04-15T23:10:30.975Z,9.70
2023-04-15T23:12:57.954Z,9.70
2023-04-15T23:15:25.465Z,9.70
2023-04-15T23:17:52.395Z,9.70
2023-04-15T23:20:19.181Z,9.70
2023-04-15T23:22:46.283Z,9.70
2023-04-15T23:25:13.057Z,9.70
2023-04-15T23:27:39.926Z,9.60
2023-04-15T23:30:07.739Z,9.70
2023-04-15T23:32:35.168Z,9.70
2023-04-15T23:35:02.032Z,9.60
2023-04-15T23:37:30.329Z,9.60
2023-04-15T23:39:57.230Z,9.60
2023-04-15T23:42:24.214Z,9.60
2023-04-15T23:44:51.868Z,9.60
2023-04-15T23:47:18.683Z,9.60
2023-04-15T23:49:45.494Z,9.60
2023-04-15T23:52:12.498Z,9.50
2023-04-15T23:54:40.163Z,9.50
2023-04-15T23:57:07.140Z,9.50
2023-04-15T23:59:33.934Z,9.50
